Terminal Aerodrome Forecast
Issued by NWS Grand Rapids, MI

Home | Current Version | Previous Version | Text Only | Print | Product List | Glossary On
Versions: 1 2 3 4 5 6 7 8 9 10 11 12 13 14 15 16 17 18 19 20 21 22 23 24 25 26
899
FTUS43 KGRR 111328 AAC
TAFGRR
TAF AMD
KGRR 111328Z 1113/1212 15008KT 1 1/2SM -SN BR OVC018
      TEMPO 1113/1115 3/4SM -SN VV009
     FM111530 18008KT 4SM -SN OVC025
     FM111800 18012KT P6SM VCSH OVC012
     FM112100 19010KT 3/4SM -SN BR OVC005
     FM120400 32015G26KT 4SM -SHSN OVC015
     FM120800 31016KT P6SM OVC025=

USA.gov is the U.S. government's official web portal to all federal, state and local government web resources and services.